Time;durP1;ratioP1;P1;durP2;ratioP2;P2;SDS_P1;SDS_P2;PMS_P1;PMS_P2;Temp;Humidity;BMP_temperature;BMP_pressure;BME280_temperature;BME280_humidity;BME280_pressure;Samples;Min_cycle;Max_cycle;Signal;HPM_P1;HPM_P2
2023/01/24 00:00:29;;;;;;;166.07;44.08;;;1.70;99.90;;;0.43;100.00;98704.16;5071962;28;20437;-76
2023/01/24 00:02:55;;;;;;;162.05;42.88;;;1.70;99.90;;;0.43;100.00;98695.50;5071919;28;20414;-76
2023/01/24 00:05:21;;;;;;;176.13;42.83;;;1.70;99.90;;;0.43;100.00;98695.50;5071628;28;20392;-77
2023/01/24 00:10:17;;;;;;;158.30;43.03;;;1.70;99.90;;;0.43;100.00;98698.94;5049832;28;20756;-78
2023/01/24 00:12:42;;;;;;;167.27;44.77;;;1.70;99.90;;;0.43;100.00;98698.94;5051543;28;20405;-78
2023/01/24 00:15:10;;;;;;;144.70;42.50;;;1.70;99.90;;;0.44;100.00;98694.53;5051566;28;20767;-77
2023/01/24 00:17:36;;;;;;;133.85;40.17;;;1.70;99.90;;;0.44;100.00;98695.38;5051284;28;20421;-78
2023/01/24 00:20:04;;;;;;;147.10;43.97;;;1.70;99.90;;;0.42;100.00;98689.47;5051455;28;20420;-78
2023/01/24 00:22:30;;;;;;;158.00;42.67;;;1.70;99.90;;;0.43;100.00;98691.13;5051533;28;20813;-77
2023/01/24 00:24:56;;;;;;;149.10;38.60;;;1.70;99.90;;;0.42;100.00;98689.47;5051293;28;20412;-77
2023/01/24 00:27:23;;;;;;;129.95;39.55;;;1.70;99.90;;;0.44;100.00;98684.94;5051222;28;20427;-77
2023/01/24 00:29:49;;;;;;;148.23;41.25;;;1.70;99.90;;;0.44;100.00;98691.94;5051271;28;20906;-77
2023/01/24 00:32:15;;;;;;;166.20;42.60;;;1.70;99.90;;;0.42;100.00;98694.69;5051072;28;20486;-77
2023/01/24 00:34:41;;;;;;;158.57;42.72;;;1.70;99.90;;;0.41;100.00;98690.44;5051052;28;20489;-77
2023/01/24 00:37:07;;;;;;;151.27;42.47;;;1.70;99.90;;;0.42;100.00;98701.69;5050746;28;20830;-77
2023/01/24 00:39:33;;;;;;;177.23;43.77;;;1.70;99.90;;;0.39;100.00;98703.63;5050634;28;20483;-77
2023/01/24 00:41:59;;;;;;;138.57;39.05;;;1.70;99.90;;;0.41;100.00;98695.66;5042537;28;20888;-77
2023/01/24 00:44:26;;;;;;;154.93;40.50;;;1.70;99.90;;;0.42;100.00;98702.50;5050870;28;20524;-76
2023/01/24 00:46:52;;;;;;;150.95;43.50;;;1.70;99.90;;;0.41;100.00;98693.06;5050853;28;20409;-78
2023/01/24 00:49:19;;;;;;;147.18;40.92;;;1.70;99.90;;;0.41;100.00;98703.47;5050934;28;20397;-76
2023/01/24 00:51:45;;;;;;;149.60;41.95;;;1.70;99.90;;;0.44;100.00;98705.78;5050935;28;20755;-78
2023/01/24 00:54:10;;;;;;;131.27;41.72;;;1.70;99.90;;;0.47;100.00;98702.84;5050825;28;20492;-77
2023/01/24 00:56:36;;;;;;;149.35;40.95;;;1.70;99.90;;;0.46;100.00;98706.44;5050518;28;20500;-78
2023/01/24 00:59:02;;;;;;;111.70;37.25;;;1.70;99.90;;;0.47;100.00;98704.63;5050386;28;20413;-77
2023/01/24 01:01:30;;;;;;;149.43;39.90;;;1.70;99.90;;;0.45;100.00;98710.03;5050250;28;20459;-77
2023/01/24 01:03:56;;;;;;;122.68;36.30;;;1.70;99.90;;;0.47;100.00;98709.84;5050470;28;20397;-76
2023/01/24 01:06:23;;;;;;;139.90;41.28;;;1.70;99.90;;;0.48;100.00;98698.47;5050437;28;20729;-78
2023/01/24 01:08:50;;;;;;;111.18;40.38;;;1.80;99.90;;;0.45;100.00;98697.00;5060668;28;20403;-78
2023/01/24 01:11:16;;;;;;;126.07;40.17;;;1.70;99.90;;;0.44;100.00;98707.56;5070290;28;20396;-78
2023/01/24 01:13:42;;;;;;;137.70;39.38;;;1.70;99.90;;;0.43;100.00;98711.13;5070443;28;20399;-78
2023/01/24 01:16:11;;;;;;;134.77;39.03;;;1.70;99.90;;;0.43;100.00;98719.78;5070313;28;20396;-78
2023/01/24 01:18:39;;;;;;;109.73;38.77;;;1.70;99.90;;;0.43;100.00;98713.75;5069678;28;20471;-78
2023/01/24 01:21:06;;;;;;;119.85;37.53;;;1.70;99.90;;;0.47;100.00;98707.25;5070292;28;20885;-78
2023/01/24 01:23:32;;;;;;;111.80;34.88;;;1.80;99.90;;;0.51;100.00;98708.59;5070222;28;20400;-78
2023/01/24 01:26:00;;;;;;;126.57;39.03;;;1.80;99.90;;;0.51;100.00;98714.63;5070148;28;20876;-78
2023/01/24 01:28:26;;;;;;;123.53;37.83;;;1.80;99.90;;;0.49;100.00;98708.72;5070108;28;20388;-79
2023/01/24 01:30:53;;;;;;;94.03;33.95;;;1.80;99.90;;;0.55;100.00;98710.72;5070126;28;20979;-79
2023/01/24 01:33:21;;;;;;;121.28;37.08;;;1.80;99.90;;;0.51;100.00;98711.19;5070130;28;20430;-78
2023/01/24 01:35:49;;;;;;;123.05;39.83;;;1.80;99.90;;;0.54;100.00;98718.69;5070091;28;20495;-78
2023/01/24 01:38:16;;;;;;;136.83;37.40;;;1.80;99.90;;;0.51;100.00;98724.22;5069661;28;20904;-78
2023/01/24 01:40:43;;;;;;;112.43;34.63;;;1.80;99.90;;;0.51;100.00;98721.59;5070081;28;20399;-78
2023/01/24 01:43:13;;;;;;;114.53;39.58;;;1.80;99.90;;;0.51;100.00;98722.44;5069925;28;20904;-79
2023/01/24 01:45:42;;;;;;;122.45;38.30;;;1.80;99.90;;;0.52;100.00;98718.03;5070077;28;20404;-79
2023/01/24 01:48:37;;;;;;;111.30;39.03;;;1.80;99.90;;;0.48;100.00;98712.31;5069729;28;20437;-78
2023/01/24 01:51:13;;;;;;;135.63;39.20;;;1.80;99.90;;;0.48;100.00;98721.91;5070026;28;20494;-78
2023/01/24 01:53:45;;;;;;;138.68;42.20;;;1.80;99.90;;;0.46;100.00;98724.66;5069901;28;20400;-78
2023/01/24 01:56:19;;;;;;;129.52;38.47;;;1.80;99.90;;;0.48;100.00;98725.31;5052034;28;20776;-78
2023/01/24 01:58:46;;;;;;;130.95;39.30;;;1.80;99.90;;;0.48;100.00;98725.31;5069962;28;20408;-78
2023/01/24 02:01:12;;;;;;;113.15;35.47;;;1.80;99.90;;;0.53;100.00;98736.09;5070058;28;20801;-78
2023/01/24 02:03:46;;;;;;;141.88;40.22;;;1.80;99.90;;;0.49;100.00;98716.53;5069927;28;20986;-78
2023/01/24 02:06:37;;;;;;;143.63;40.40;;;1.80;99.90;;;0.51;100.00;98717.22;5069586;28;20893;-78
2023/01/24 02:09:07;;;;;;;146.40;40.27;;;1.80;99.90;;;0.47;100.00;98726.28;5051648;28;20404;-78
2023/01/24 02:11:40;;;;;;;144.00;38.63;;;1.80;99.90;;;0.47;100.00;98723.69;5070022;28;20531;-78
2023/01/24 02:16:54;;;;;;;162.43;43.35;;;1.80;99.90;;;0.49;100.00;98729.56;5069623;28;20808;-78
2023/01/24 02:19:45;;;;;;;146.98;40.83;;;1.80;99.90;;;0.50;100.00;98730.38;5071216;28;20442;-78
2023/01/24 02:22:19;;;;;;;133.40;40.83;;;1.80;99.90;;;0.51;100.00;98727.63;5069913;28;20396;-78
2023/01/24 02:24:59;;;;;;;140.10;40.85;;;1.80;99.90;;;0.52;100.00;98725.84;5069992;28;20788;-79
2023/01/24 02:27:27;;;;;;;128.07;39.13;;;1.80;99.90;;;0.51;100.00;98727.63;5069659;28;20395;-78
2023/01/24 02:29:55;;;;;;;108.00;36.25;;;1.80;99.90;;;0.54;100.00;98736.91;5051736;28;20826;-78
2023/01/24 02:32:21;;;;;;;130.77;37.45;;;1.80;99.90;;;0.51;100.00;98738.06;5073222;28;20841;-79
2023/01/24 02:34:47;;;;;;;118.40;37.85;;;1.80;99.90;;;0.51;100.00;98742.44;5073639;28;20498;-79
2023/01/24 02:37:13;;;;;;;144.73;38.78;;;1.80;99.90;;;0.50;100.00;98743.41;5073339;28;20410;-78
2023/01/24 02:39:49;;;;;;;137.43;41.67;;;1.80;99.90;;;0.52;100.00;98739.69;5073340;28;20468;-79
2023/01/24 02:42:20;;;;;;;143.18;38.22;;;1.80;99.90;;;0.52;100.00;98750.13;5073274;28;20396;-79
2023/01/24 02:44:57;;;;;;;133.18;36.20;;;1.80;99.90;;;0.51;100.00;98752.88;5073225;28;20455;-79
2023/01/24 02:47:32;;;;;;;142.00;38.55;;;1.80;99.90;;;0.48;100.00;98748.78;5073184;28;20406;-79
2023/01/24 02:49:58;;;;;;;143.93;39.30;;;1.80;99.90;;;0.50;100.00;98756.44;5055351;28;20404;-79
2023/01/24 02:55:08;;;;;;;125.40;36.80;;;1.80;99.90;;;0.50;100.00;98756.44;5073234;28;20808;-79
2023/01/24 03:00:20;;;;;;;140.13;42.30;;;1.80;99.90;;;0.50;100.00;98762.47;5072875;28;20395;-79
2023/01/24 03:02:46;;;;;;;136.40;37.85;;;1.80;99.90;;;0.49;100.00;98755.63;5072775;28;20400;-79
2023/01/24 03:05:13;;;;;;;156.07;40.40;;;1.80;99.90;;;0.50;100.00;98759.03;5072768;28;21248;-79
2023/01/24 03:07:44;;;;;;;146.65;38.65;;;1.80;99.90;;;0.50;100.00;98759.03;5054451;28;20841;-79
2023/01/24 03:10:11;;;;;;;128.70;35.65;;;1.80;99.90;;;0.49;100.00;98749.59;5072502;28;20404;-77
2023/01/24 03:34:48;;;;;;;174.47;42.20;;;1.70;99.90;;;0.45;100.00;98753.50;5072179;28;21012;-78
2023/01/24 03:37:15;;;;;;;157.57;38.85;;;1.70;99.90;;;0.46;100.00;98755.09;5072109;28;20404;-79
2023/01/24 03:40:03;;;;;;;144.57;38.15;;;1.70;99.90;;;0.46;100.00;98757.69;5072007;28;20676;-79
2023/01/24 03:42:27;;;;;;;131.50;38.25;;;1.70;99.90;;;0.47;100.00;98764.53;5071177;28;20427;-78
2023/01/24 03:44:53;;;;;;;138.40;38.17;;;1.80;99.90;;;0.48;100.00;98764.41;5071986;28;20900;-79
2023/01/24 03:47:20;;;;;;;155.43;41.60;;;1.70;99.90;;;0.47;100.00;98756.72;5071867;28;20427;-79
2023/01/24 03:52:31;;;;;;;156.82;41.67;;;1.70;99.90;;;0.48;100.00;98768.78;5058282;28;20400;-78
2023/01/24 03:54:59;;;;;;;163.07;41.27;;;1.80;99.90;;;0.48;100.00;98763.59;5051766;28;20426;-79
2023/01/24 03:57:26;;;;;;;158.02;40.38;;;1.80;99.90;;;0.48;100.00;98768.78;5051805;28;20392;-78
2023/01/24 03:59:52;;;;;;;152.52;40.75;;;1.80;99.90;;;0.48;100.00;98764.41;5051750;28;20418;-78
2023/01/24 04:02:20;;;;;;;163.80;41.72;;;1.80;99.90;;;0.48;100.00;98771.41;5051718;28;20406;-78
2023/01/24 04:07:31;;;;;;;165.70;43.97;;;1.80;99.90;;;0.48;100.00;98776.59;5051655;28;20400;-77
2023/01/24 04:09:58;;;;;;;153.55;41.58;;;1.70;99.90;;;0.47;100.00;98770.56;5051337;28;20413;-79
2023/01/24 04:12:24;;;;;;;153.80;41.13;;;1.80;99.90;;;0.49;100.00;98762.63;5051458;28;20486;-79
2023/01/24 04:14:50;;;;;;;193.90;45.08;;;1.80;99.90;;;0.48;100.00;98771.41;5051451;28;20448;-79
2023/01/24 04:17:16;;;;;;;168.38;45.47;;;1.80;99.90;;;0.47;100.00;98762.75;5051288;28;20834;-79
2023/01/24 04:19:44;;;;;;;154.00;41.45;;;1.80;99.90;;;0.48;100.00;98763.59;5051291;28;20981;-79
2023/01/24 04:22:09;;;;;;;166.30;43.25;;;1.80;99.90;;;0.47;100.00;98762.75;5051524;28;20404;-79
2023/01/24 04:24:35;;;;;;;160.67;41.77;;;1.80;99.90;;;0.49;100.00;98760.00;5051343;28;20439;-79
2023/01/24 04:27:01;;;;;;;173.60;43.08;;;1.80;99.90;;;0.44;100.00;98749.25;5048228;28;20428;-78
2023/01/24 04:29:27;;;;;;;184.23;44.83;;;1.80;99.90;;;0.47;100.00;98761.94;5039305;28;20407;-78
2023/01/24 04:31:53;;;;;;;159.48;40.85;;;1.70;99.90;;;0.48;100.00;98758.38;5040506;28;20439;-78
2023/01/24 04:34:19;;;;;;;172.75;44.58;;;1.80;99.90;;;0.44;100.00;98763.09;5033080;28;20428;-78
2023/01/24 04:36:46;;;;;;;142.52;40.38;;;1.70;99.90;;;0.47;100.00;98757.56;5050795;28;20437;-78
2023/01/24 04:39:13;;;;;;;182.95;44.00;;;1.70;99.90;;;0.49;100.00;98760.84;5050821;28;20419;-78
2023/01/24 04:41:38;;;;;;;173.48;46.05;;;1.80;99.90;;;0.47;100.00;98761.94;5051207;28;20488;-78
2023/01/24 04:44:05;;;;;;;177.15;42.42;;;1.70;99.90;;;0.48;100.00;98766.19;5050966;28;20404;-78
2023/01/24 04:46:31;;;;;;;161.70;39.97;;;1.80;99.90;;;0.48;100.00;98763.59;5050679;28;20912;-79
2023/01/24 04:48:57;;;;;;;174.98;42.78;;;1.70;99.90;;;0.47;100.00;98765.38;5050689;28;20397;-79
2023/01/24 04:51:23;;;;;;;184.23;45.47;;;1.80;99.90;;;0.45;100.00;98769.13;5051170;28;20401;-79
2023/01/24 04:53:50;;;;;;;181.77;43.10;;;1.80;99.90;;;0.47;100.00;98769.75;5049965;28;20406;-78
2023/01/24 04:56:16;;;;;;;180.43;43.90;;;1.70;99.90;;;0.48;100.00;98772.22;5050364;28;20524;-79
2023/01/24 04:58:42;;;;;;;187.07;46.25;;;1.80;99.90;;;0.48;100.00;98764.41;5050684;28;20421;-78
2023/01/24 05:01:08;;;;;;;165.17;43.70;;;1.80;99.90;;;0.51;100.00;98774.53;5050937;28;20405;-77
2023/01/24 05:03:34;;;;;;;185.13;45.33;;;1.80;99.90;;;0.48;100.00;98777.44;5050750;28;20405;-78
2023/01/24 05:06:00;;;;;;;180.10;42.73;;;1.80;99.90;;;0.49;100.00;98780.84;5050329;28;20441;-78
2023/01/24 05:08:26;;;;;;;174.00;41.97;;;1.80;99.90;;;0.48;100.00;98787.03;5049974;28;20425;-77
2023/01/24 05:10:53;;;;;;;175.77;44.67;;;1.80;99.90;;;0.49;100.00;98789.47;5050287;28;20398;-76
2023/01/24 05:13:19;;;;;;;179.15;46.13;;;1.80;99.90;;;0.48;100.00;98781.81;5050646;28;20489;-82
2023/01/24 05:15:46;;;;;;;203.93;48.10;;;1.80;99.90;;;0.47;100.00;98782.78;5030140;28;20417;-79
2023/01/24 05:18:12;;;;;;;156.53;41.10;;;1.80;99.90;;;0.50;100.00;98785.09;5048522;28;20413;-78
2023/01/24 05:20:38;;;;;;;173.15;43.95;;;1.80;99.90;;;0.49;100.00;98789.47;5047734;28;20500;-77
2023/01/24 05:23:04;;;;;;;164.93;43.77;;;1.80;99.90;;;0.51;100.00;98782.34;5030212;28;20487;-75
2023/01/24 05:25:30;;;;;;;174.60;46.55;;;1.80;99.90;;;0.53;100.00;98790.81;5049416;28;20431;-78
2023/01/24 05:27:57;;;;;;;207.25;51.15;;;1.80;99.90;;;0.51;100.00;98790.16;5052304;28;20488;-80
2023/01/24 05:30:23;;;;;;;195.45;50.05;;;1.80;99.90;;;0.51;100.00;98795.38;5050846;28;20411;-77
2023/01/24 05:32:49;;;;;;;181.43;45.30;;;1.80;99.90;;;0.52;100.00;98804.81;5051208;28;20405;-77
2023/01/24 05:35:15;;;;;;;190.60;49.95;;;1.80;99.90;;;0.50;100.00;98805.94;5050413;28;20786;-78
2023/01/24 05:37:41;;;;;;;168.33;45.80;;;1.80;99.90;;;0.49;100.00;98801.69;5047961;28;20413;-78
2023/01/24 05:40:09;;;;;;;180.82;44.22;;;1.80;99.90;;;0.49;100.00;98805.13;5050058;28;20409;-78
2023/01/24 05:42:35;;;;;;;187.40;47.42;;;1.80;99.90;;;0.50;100.00;98813.75;5048340;28;20906;-78
2023/01/24 05:45:05;;;;;;;183.17;48.80;;;1.80;99.90;;;0.49;100.00;98812.09;5047770;28;20487;-78
2023/01/24 05:47:31;;;;;;;190.43;46.10;;;1.80;99.90;;;0.50;100.00;98817.19;5048809;28;20436;-78
2023/01/24 05:49:57;;;;;;;164.10;42.38;;;1.80;99.90;;;0.50;100.00;98814.56;5052299;28;20896;-78
2023/01/24 05:52:23;;;;;;;190.45;46.15;;;1.80;99.90;;;0.52;100.00;98815.25;5047016;28;20466;-78
2023/01/24 05:54:49;;;;;;;221.15;48.00;;;1.80;99.90;;;0.51;100.00;98811.00;5037096;28;20993;-79
2023/01/24 05:57:15;;;;;;;229.07;49.03;;;1.80;99.90;;;0.49;100.00;98823.34;5053952;28;20444;-78
2023/01/24 05:59:41;;;;;;;198.63;46.28;;;1.80;99.90;;;0.49;100.00;98814.72;5051607;28;20428;-78
2023/01/24 06:02:08;;;;;;;204.02;46.28;;;1.80;99.90;;;0.48;100.00;98815.69;5053494;28;20437;-78
2023/01/24 06:04:34;;;;;;;215.90;53.97;;;1.80;99.90;;;0.44;100.00;98815.19;5046662;28;20417;-78
2023/01/24 06:07:00;;;;;;;195.15;48.42;;;1.70;99.90;;;0.48;100.00;98810.47;5061090;28;20560;-77
2023/01/24 06:09:26;;;;;;;187.27;44.70;;;1.80;99.90;;;0.48;100.00;98813.06;5068803;22;20561;-73
2023/01/24 06:11:52;;;;;;;180.02;43.45;;;1.80;99.90;;;0.48;100.00;98820.88;5053617;28;20436;-74
2023/01/24 06:14:18;;;;;;;193.70;44.90;;;1.80;99.90;;;0.48;100.00;98819.09;5053476;28;20428;-74
2023/01/24 06:16:46;;;;;;;187.85;44.08;;;1.80;99.90;;;0.48;100.00;98819.09;5052803;28;20444;-74
2023/01/24 06:19:14;;;;;;;202.02;48.03;;;1.80;99.90;;;0.48;100.00;98816.50;5052060;28;20440;-75
2023/01/24 06:21:44;;;;;;;191.20;49.60;;;1.80;99.90;;;0.49;100.00;98817.31;5053856;28;20409;-76
2023/01/24 06:24:18;;;;;;;215.95;50.42;;;1.80;99.90;;;0.49;100.00;98820.75;5053191;28;20393;-75
2023/01/24 06:26:45;;;;;;;211.30;53.35;;;1.80;99.90;;;0.48;100.00;98821.72;5051073;28;20429;-76
2023/01/24 06:29:13;;;;;;;225.38;50.30;;;1.80;99.90;;;0.48;100.00;98819.09;5049111;28;20508;-75
2023/01/24 06:31:49;;;;;;;210.77;48.53;;;1.80;99.90;;;0.47;100.00;98827.88;5041935;28;20459;-75
2023/01/24 06:34:39;;;;;;;230.60;54.00;;;1.80;99.90;;;0.46;100.00;98828.03;5051634;28;20450;-76
2023/01/24 06:37:16;;;;;;;227.73;50.60;;;1.80;99.90;;;0.46;100.00;98830.63;5052321;28;20409;-75
2023/01/24 06:39:51;;;;;;;225.95;50.67;;;1.80;99.90;;;0.46;100.00;98828.84;5052876;28;20413;-75
2023/01/24 06:42:18;;;;;;;200.95;51.25;;;1.80;99.90;;;0.50;100.00;98834.59;5039503;28;20412;-75
2023/01/24 06:44:44;;;;;;;218.07;51.42;;;1.80;99.90;;;0.48;100.00;98839.13;5050648;28;20759;-74
2023/01/24 06:47:10;;;;;;;201.02;47.63;;;1.80;99.90;;;0.49;100.00;98851.19;5031477;28;20405;-75
2023/01/24 06:49:38;;;;;;;217.70;47.90;;;1.80;99.90;;;0.49;100.00;98845.97;5050764;28;20480;-75
2023/01/24 06:52:04;;;;;;;246.80;58.00;;;1.80;99.90;;;0.48;100.00;98845.16;5046047;28;20779;-75
2023/01/24 06:54:30;;;;;;;227.85;53.92;;;1.80;99.90;;;0.49;100.00;98852.00;5045504;28;20768;-75
2023/01/24 06:56:56;;;;;;;198.35;51.20;;;1.80;99.90;;;0.50;100.00;98851.03;5036584;28;20409;-75
2023/01/24 06:59:22;;;;;;;217.47;58.57;;;1.80;99.90;;;0.47;100.00;98853.94;5047329;28;20488;-73
2023/01/24 07:01:48;;;;;;;246.30;56.15;;;1.80;99.90;;;0.48;100.00;98859.97;5051034;28;20894;-76
2023/01/24 07:04:14;;;;;;;230.25;55.50;;;1.80;99.90;;;0.48;100.00;98857.34;5044136;28;20414;-76
2023/01/24 07:06:42;;;;;;;265.02;57.75;;;1.80;99.90;;;0.48;100.00;98862.56;5050777;28;20906;-76
2023/01/24 07:09:08;;;;;;;209.02;52.83;;;1.80;99.90;;;0.49;100.00;98865.03;5051548;28;20433;-75
2023/01/24 07:11:34;;;;;;;212.05;52.08;;;1.80;99.90;;;0.52;100.00;98867.34;5060941;28;20463;-76
2023/01/24 07:14:01;;;;;;;233.40;53.85;;;1.80;99.90;;;0.51;100.00;98865.72;5046800;28;20788;-76
2023/01/24 07:16:27;;;;;;;221.18;51.65;;;1.80;99.90;;;0.52;100.00;98867.34;5044454;28;20437;-75
2023/01/24 07:18:53;;;;;;;243.30;54.95;;;1.80;99.90;;;0.50;100.00;98866.66;5046701;28;20456;-75
2023/01/24 07:21:20;;;;;;;182.68;47.70;;;1.80;99.90;;;0.52;100.00;98864.75;5049801;28;20422;-76
2023/01/24 07:23:49;;;;;;;187.17;50.43;;;1.80;99.90;;;0.55;100.00;98866.19;5052291;28;20528;-76
2023/01/24 07:26:16;;;;;;;226.98;51.08;;;1.80;99.90;;;0.53;100.00;98881.16;5049046;28;20461;-75
2023/01/24 07:28:43;;;;;;;228.65;51.47;;;1.80;99.90;;;0.52;100.00;98871.72;5046822;28;20987;-75
2023/01/24 07:31:12;;;;;;;211.60;52.40;;;1.80;99.90;;;0.55;100.00;98882.66;5052546;28;20417;-74
2023/01/24 07:33:38;;;;;;;218.15;53.13;;;1.80;99.90;;;0.54;100.00;98882.81;5051695;28;20780;-76
2023/01/24 07:36:12;;;;;;;195.57;49.97;;;1.80;99.90;;;0.54;100.00;98875.81;5054089;28;20467;-75
2023/01/24 07:38:38;;;;;;;231.60;53.80;;;1.80;99.90;;;0.56;100.00;98880.88;5049301;28;20428;-75
2023/01/24 07:41:08;;;;;;;221.77;50.55;;;1.80;99.90;;;0.56;100.00;98880.88;5047655;28;20928;-76
2023/01/24 07:43:33;;;;;;;219.13;51.80;;;1.80;99.90;;;0.55;100.00;98876.63;5044637;28;20502;-76
2023/01/24 07:45:59;;;;;;;220.68;51.55;;;1.80;99.90;;;0.54;100.00;98888.00;5051266;28;20413;-76
2023/01/24 07:48:25;;;;;;;219.13;50.22;;;1.80;99.90;;;0.53;100.00;98884.59;5069656;28;20491;-76
2023/01/24 07:50:51;;;;;;;226.07;52.58;;;1.80;99.90;;;0.56;100.00;98897.31;5039143;28;21090;-77
2023/01/24 07:53:17;;;;;;;214.10;48.95;;;1.80;99.90;;;0.56;100.00;98899.09;5029414;28;20515;-76
2023/01/24 07:55:43;;;;;;;189.63;46.40;;;1.80;99.90;;;0.56;100.00;98906.94;5047056;28;20930;-75
2023/01/24 07:58:10;;;;;;;215.40;50.72;;;1.90;99.90;;;0.56;100.00;98902.53;5037449;28;20447;-75
2023/01/24 08:00:36;;;;;;;185.38;46.10;;;1.80;99.90;;;0.60;100.00;98909.06;5042781;28;20472;-76
2023/01/24 08:03:02;;;;;;;206.40;47.05;;;1.90;99.90;;;0.60;100.00;98910.88;5046666;28;20521;-78
2023/01/24 08:05:28;;;;;;;208.30;47.63;;;1.90;99.90;;;0.60;100.00;98911.66;5047802;28;20417;-78
2023/01/24 08:07:55;;;;;;;200.00;53.53;;;1.90;99.90;;;0.60;100.00;98908.28;5047414;28;20437;-78
2023/01/24 08:10:21;;;;;;;196.05;47.33;;;1.90;99.90;;;0.60;100.00;98916.88;5042066;28;20420;-78
2023/01/24 08:12:47;;;;;;;206.77;46.80;;;1.90;99.90;;;0.62;100.00;98912.34;5050267;28;20408;-77
2023/01/24 08:15:15;;;;;;;192.18;44.88;;;1.90;99.90;;;0.64;100.00;98917.41;5051310;28;20413;-78
2023/01/24 08:17:41;;;;;;;178.30;42.88;;;1.90;99.90;;;0.64;100.00;98918.25;5045368;28;20996;-78
2023/01/24 08:20:09;;;;;;;193.07;48.08;;;1.90;99.90;;;0.65;100.00;98919.06;5033197;28;20439;-77
2023/01/24 08:22:37;;;;;;;185.32;45.70;;;1.90;99.90;;;0.67;100.00;98917.13;5049612;28;20906;-78
2023/01/24 08:25:04;;;;;;;193.32;44.97;;;1.90;99.90;;;0.69;100.00;98925.59;5041399;28;20545;-77
2023/01/24 08:27:31;;;;;;;163.63;41.25;;;2.00;99.90;;;0.71;100.00;98926.25;5046275;28;20421;-77
2023/01/24 08:29:57;;;;;;;169.32;43.85;;;2.00;99.90;;;0.72;100.00;98930.50;5050225;28;20395;-78
2023/01/24 08:32:24;;;;;;;174.70;44.40;;;2.00;99.90;;;0.75;100.00;98933.63;5050995;28;21020;-77
2023/01/24 08:34:50;;;;;;;197.68;44.75;;;2.00;99.90;;;0.75;100.00;98935.44;5050092;28;20409;-76
2023/01/24 08:37:16;;;;;;;206.07;44.95;;;2.00;99.90;;;0.75;100.00;98931.00;5045836;28;20399;-76
2023/01/24 08:39:42;;;;;;;179.40;43.40;;;2.00;99.90;;;0.77;100.00;98933.47;5050786;28;20950;-75
2023/01/24 08:42:09;;;;;;;152.80;39.83;;;2.10;99.90;;;0.83;100.00;98934.69;5050838;28;20413;-75
2023/01/24 08:44:35;;;;;;;192.85;46.95;;;2.10;99.90;;;0.85;100.00;98938.75;5050122;28;20472;-76
2023/01/24 08:47:01;;;;;;;179.52;44.67;;;2.10;99.90;;;0.88;100.00;98940.25;5043557;28;20418;-76
2023/01/24 08:49:28;;;;;;;164.60;42.38;;;2.20;99.90;;;0.94;100.00;98942.25;5045440;28;20416;-75
2023/01/24 08:51:58;;;;;;;198.60;45.95;;;2.20;99.90;;;0.91;100.00;98935.53;5049724;28;20425;-75
2023/01/24 08:54:24;;;;;;;179.40;44.42;;;2.20;99.90;;;0.92;100.00;98938.97;5047878;28;20947;-76
2023/01/24 08:56:50;;;;;;;178.85;44.03;;;2.20;99.90;;;0.96;100.00;98943.75;5045413;28;20482;-75
2023/01/24 08:59:18;;;;;;;156.43;42.85;;;2.20;99.90;;;0.99;100.00;98940.81;5050934;28;20516;-73
2023/01/24 09:01:44;;;;;;;143.98;40.78;;;2.30;99.90;;;1.04;100.00;98950.81;5046529;28;20404;-76
2023/01/24 09:04:12;;;;;;;180.05;42.90;;;2.30;99.90;;;1.03;100.00;98951.78;5038519;28;21272;-83
2023/01/24 09:06:39;;;;;;;149.27;39.25;;;2.30;99.90;;;1.05;100.00;98950.63;5043481;28;20898;-77
2023/01/24 09:09:05;;;;;;;173.85;43.08;;;2.30;99.90;;;1.06;100.00;98959.28;5040254;28;20422;-76
2023/01/24 09:11:31;;;;;;;168.75;44.58;;;2.30;99.90;;;1.08;100.00;98955.56;5036912;28;20426;-77
2023/01/24 09:13:57;;;;;;;161.40;42.65;;;2.30;99.90;;;1.07;100.00;98959.13;5049432;28;20420;-79
2023/01/24 09:16:24;;;;;;;163.27;49.25;;;2.30;99.90;;;1.04;100.00;98954.22;5050060;28;20409;-75
2023/01/24 09:18:51;;;;;;;158.95;45.28;;;2.30;99.90;;;1.05;100.00;98948.03;5032184;28;20419;-75
2023/01/24 09:21:17;;;;;;;149.77;42.40;;;2.30;99.90;;;1.08;100.00;98958.16;5050453;28;20562;-76
2023/01/24 09:23:44;;;;;;;175.25;44.58;;;2.30;99.90;;;1.09;100.00;98958.97;5046642;28;20962;-78
2023/01/24 09:26:10;;;;;;;148.98;41.97;;;2.30;99.90;;;1.11;100.00;98962.25;5047435;28;20937;-77
2023/01/24 09:28:36;;;;;;;136.65;40.15;;;2.40;99.90;;;1.14;100.00;98960.16;5042893;28;20403;-78
2023/01/24 09:31:03;;;;;;;137.47;42.30;;;2.40;99.90;;;1.19;100.00;98961.50;5048563;28;20467;-77
2023/01/24 09:33:29;;;;;;;126.25;38.45;;;2.40;99.90;;;1.20;100.00;98965.75;5044264;28;20442;-76
2023/01/24 09:35:57;;;;;;;138.63;44.15;;;2.50;99.90;;;1.22;100.00;98971.59;5045128;28;20459;-77
2023/01/24 09:38:26;;;;;;;128.00;39.17;;;2.50;99.90;;;1.23;100.00;98970.66;5049557;28;20895;-76
2023/01/24 09:41:03;;;;;;;144.38;41.03;;;2.50;99.90;;;1.20;100.00;98968.34;5048242;28;20448;-76
2023/01/24 09:43:43;;;;;;;123.18;37.50;;;2.50;99.90;;;1.22;100.00;98972.44;5046131;28;25188;-76
2023/01/24 09:46:24;;;;;;;148.77;41.40;;;2.50;99.90;;;1.22;100.00;98976.81;5048077;28;20515;-76
2023/01/24 09:49:01;;;;;;;125.05;36.72;;;2.50;99.90;;;1.24;100.00;98967.88;5053396;28;20498;-77
2023/01/24 09:51:34;;;;;;;121.93;36.85;;;2.50;99.90;;;1.28;100.00;98973.63;5042585;28;20432;-76
2023/01/24 09:54:03;;;;;;;125.97;40.08;;;2.50;99.90;;;1.30;100.00;98969.06;5048707;28;20412;-76
2023/01/24 09:56:38;;;;;;;129.23;37.10;;;2.60;99.90;;;1.31;100.00;98970.69;5049264;28;20456;-77
2023/01/24 09:59:20;;;;;;;114.93;35.92;;;2.50;99.90;;;1.34;100.00;98975.63;5041752;28;20424;-76
2023/01/24 10:01:47;;;;;;;133.50;37.25;;;2.60;99.90;;;1.33;100.00;98972.19;5057158;28;20758;-76
2023/01/24 10:04:16;;;;;;;126.90;35.35;;;2.60;99.90;;;1.36;100.00;98977.09;5047792;28;20459;-76
2023/01/24 10:07:11;;;;;;;110.25;35.45;;;2.60;99.90;;;1.40;100.00;98969.78;5029148;28;20897;-76
2023/01/24 10:09:55;;;;;;;101.57;33.08;;;2.70;99.90;;;1.40;100.00;98970.59;5051013;28;20412;-75
2023/01/24 10:12:40;;;;;;;103.35;33.00;;;2.70;99.90;;;1.43;100.00;98979.91;5043540;28;20412;-76
2023/01/24 10:15:24;;;;;;;97.60;31.90;;;2.70;99.90;;;1.41;100.00;98977.47;5038757;28;20422;-76
2023/01/24 10:18:33;;;;;;;108.95;33.80;;;2.70;99.90;;;1.41;100.00;98974.84;5043923;28;20395;-78
2023/01/24 10:21:32;;;;;;;87.07;29.33;;;2.70;99.90;;;1.41;100.00;98972.25;5013813;28;20482;-77
2023/01/24 10:24:03;;;;;;;91.78;29.70;;;2.70;99.90;;;1.42;100.00;98973.06;5033058;28;20751;-76
2023/01/24 10:26:34;;;;;;;91.25;31.42;;;2.70;99.90;;;1.44;100.00;98973.72;5048334;28;20415;-79
2023/01/24 10:29:14;;;;;;;95.30;30.20;;;2.70;99.90;;;1.46;100.00;98969.16;5049136;28;20465;-77
2023/01/24 10:31:45;;;;;;;89.93;30.10;;;2.70;99.90;;;1.47;100.00;98962.97;5045626;28;20409;-82
2023/01/24 10:34:16;;;;;;;85.73;30.27;;;2.70;99.90;;;1.52;100.00;98971.16;5053883;28;20408;-83
2023/01/24 10:36:46;;;;;;;99.30;28.55;;;2.70;99.90;;;1.51;100.00;98965.13;5053165;28;20426;-80
2023/01/24 10:39:12;;;;;;;68.18;26.50;;;2.80;99.90;;;1.55;100.00;98966.44;5048185;28;20446;-77
2023/01/24 10:41:38;;;;;;;73.07;27.85;;;2.80;99.90;;;1.58;100.00;98965.31;5051158;28;20923;-78
2023/01/24 10:44:14;;;;;;;80.15;27.73;;;2.80;99.90;;;1.60;100.00;98957.31;5056492;28;20912;-78
2023/01/24 10:47:22;;;;;;;66.63;27.00;;;2.80;99.90;;;1.64;100.00;98958.66;5053244;28;20410;-81
2023/01/24 10:49:56;;;;;;;70.70;25.50;;;2.90;99.90;;;1.67;100.00;98958.34;5040982;28;20763;-80